Time,TemperatureF,DewpointF,PressureIn,WindDirection,WindDirectionDegrees,WindSpeedMPH,WindSpeedGustMPH,Humidity,HourlyPrecipIn,Conditions,Clouds,dailyrainin,SoftwareType,DateUTC
2013-08-18 02:00:00,63.0,-99.9,-100.00,SE,126,49.0,-999.0,-999,-99.99,,,0.00,,2013-08-18 08:00:00,
2013-08-18 02:52:00,63.0,-99.9,-100.00,SE,126,49.0,-999.0,-999,-99.99,,,0.00,,2013-08-18 08:52:00,
2013-08-18 04:00:00,62.0,-99.9,-100.00,ESE,110,39.0,-999.0,-999,-99.99,,,0.00,,2013-08-18 10:00:00,
2013-08-18 04:52:00,62.0,-99.9,-100.00,ESE,110,39.0,-999.0,-999,-99.99,,,0.00,,2013-08-18 10:52:00,
2013-08-18 05:00:00,61.0,-99.9,-100.00,ESE,118,41.0,-999.0,-999,-99.99,,,0.00,,2013-08-18 11:00:00,
2013-08-18 05:52:00,61.0,-99.9,-100.00,ESE,118,41.0,-999.0,-999,-99.99,,,0.00,,2013-08-18 11:52:00,
2013-08-18 07:00:00,62.0,-99.9,-100.00,SE,126,46.0,-999.0,-999,-99.99,,,0.00,,2013-08-18 13:00:00,
2013-08-18 07:52:00,62.0,-99.9,-100.00,SE,126,46.0,-999.0,-999,-99.99,,,0.00,,2013-08-18 13:52:00,
2013-08-18 11:00:00,77.0,-99.9,-100.00,East,82,31.0,-999.0,-999,-99.99,,,0.00,,2013-08-18 17:00:00,
2013-08-18 11:52:00,77.0,-99.9,-100.00,East,82,31.0,-999.0,-999,-99.99,,,0.00,,2013-08-18 17:52:00,
2013-08-18 12:00:00,76.0,-99.9,-100.00,East,82,32.0,-999.0,-999,-99.99,,,0.00,,2013-08-18 18:00:00,
2013-08-18 12:52:00,76.0,-99.9,-100.00,East,82,32.0,-999.0,-999,-99.99,,,0.00,,2013-08-18 18:52:00,
2013-08-18 14:00:00,79.0,-99.9,-100.00,ENE,65,26.0,-999.0,-999,-99.99,,,-99.99,,2013-08-18 20:00:00,
2013-08-18 14:52:00,79.0,-99.9,-100.00,ENE,65,26.0,-999.0,-999,-99.99,,,-99.99,,2013-08-18 20:52:00,
2013-08-18 15:00:00,68.0,-99.9,-100.00,East,86,39.0,-999.0,-999,-99.99,,,0.00,,2013-08-18 21:00:00,
2013-08-18 15:54:00,68.0,-99.9,-100.00,East,86,39.0,-999.0,-999,-99.99,,,0.00,,2013-08-18 21:54:00,
2013-08-18 16:00:00,67.0,-99.9,-100.00,ESE,111,43.0,-999.0,-999,-99.99,,,0.00,,2013-08-18 22:00:00,
2013-08-18 16:52:00,67.0,-99.9,-100.00,ESE,111,43.0,-999.0,-999,-99.99,,,0.00,,2013-08-18 22:52:00,
2013-08-18 17:00:00,66.0,-99.9,-100.00,SE,136,50.0,-999.0,-999,-99.99,,,0.00,,2013-08-18 23:00:00,
2013-08-18 17:52:00,66.0,-99.9,-100.00,SE,136,50.0,-999.0,-999,-99.99,,,0.00,,2013-08-18 23:52:00,
2013-08-18 19:00:00,64.0,-99.9,-100.00,SE,137,51.0,-999.0,-999,-99.99,,,0.00,,2013-08-19 01:00:00,
2013-08-18 19:52:00,64.0,-99.9,-100.00,SE,137,51.0,-999.0,-999,-99.99,,,0.00,,2013-08-19 01:52:00,
2013-08-18 21:00:00,64.0,-99.9,-100.00,SSE,149,52.0,-999.0,-999,-99.99,,,0.00,,2013-08-19 03:00:00,
2013-08-18 21:53:00,64.0,-99.9,-100.00,SSE,149,52.0,-999.0,-999,-99.99,,,0.00,,2013-08-19 03:53:00,
2013-08-18 22:00:00,62.0,-99.9,-100.00,SE,140,51.0,-999.0,-999,-99.99,,,0.00,,2013-08-19 04:00:00,
2013-08-18 22:53:00,62.0,-99.9,-100.00,SE,140,51.0,-999.0,-999,-99.99,,,0.00,,2013-08-19 04:53:00,